createdAt,value
2018-04-16T00:00:22.112Z,18.80
2018-04-16T00:02:49.621Z,18.85
2018-04-16T00:05:18.175Z,19.00
2018-04-16T00:07:45.754Z,19.80
2018-04-16T00:10:13.330Z,17.58
2018-04-16T00:12:41.619Z,18.52
2018-04-16T00:15:09.141Z,20.00
2018-04-16T00:17:36.924Z,19.58
2018-04-16T00:20:04.429Z,18.85
2018-04-16T00:22:32.458Z,18.62
2018-04-16T00:25:01.635Z,18.45
2018-04-16T00:27:29.952Z,18.55
2018-04-16T00:29:57.484Z,18.12
2018-04-16T00:32:30.614Z,18.73
2018-04-16T00:35:03.730Z,19.02
2018-04-16T00:37:36.829Z,18.48
2018-04-16T00:40:09.899Z,17.02
2018-04-16T00:42:43.233Z,22.45
2018-04-16T00:45:16.392Z,22.50
2018-04-16T00:47:49.540Z,21.62
2018-04-16T00:50:22.714Z,21.02
2018-04-16T00:52:55.825Z,20.02
2018-04-16T00:55:44.794Z,19.75
2018-04-16T00:58:17.921Z,18.73
2018-04-16T01:00:51.090Z,20.40
2018-04-16T01:03:24.250Z,18.45
2018-04-16T01:05:57.416Z,19.85
2018-04-16T01:08:30.565Z,20.27
2018-04-16T01:11:03.704Z,19.15
2018-04-16T01:13:36.844Z,19.05
2018-04-16T01:16:10.036Z,21.25
2018-04-16T01:18:43.254Z,22.52
2018-04-16T01:21:16.325Z,22.90
2018-04-16T01:24:01.663Z,21.75
2018-04-16T01:26:34.809Z,23.90
2018-04-16T01:29:07.984Z,24.08
2018-04-16T01:31:41.183Z,24.70
2018-04-16T01:34:14.271Z,23.20
2018-04-16T01:36:47.408Z,23.07
2018-04-16T01:39:20.539Z,24.30
2018-04-16T01:41:53.710Z,22.30
2018-04-16T01:44:27.614Z,23.92
2018-04-16T01:47:00.711Z,25.40
2018-04-16T01:49:34.610Z,23.08
2018-04-16T01:52:07.866Z,26.02
2018-04-16T01:54:40.963Z,24.63
2018-04-16T01:57:14.209Z,23.92
2018-04-16T01:59:47.492Z,23.75
2018-04-16T02:02:21.473Z,25.25
2018-04-16T02:05:07.750Z,24.92
2018-04-16T02:07:41.106Z,25.48
2018-04-16T02:10:14.233Z,24.90
2018-04-16T02:12:47.385Z,23.80
2018-04-16T02:15:21.295Z,23.95
2018-04-16T02:17:54.454Z,24.87
2018-04-16T02:20:27.587Z,24.10
2018-04-16T02:23:00.808Z,23.62
2018-04-16T02:25:33.908Z,25.10
2018-04-16T02:28:07.967Z,23.45
2018-04-16T02:30:41.836Z,25.12
2018-04-16T02:33:14.971Z,24.70
2018-04-16T02:35:49.054Z,25.00
2018-04-16T02:38:22.174Z,23.43
2018-04-16T02:41:09.600Z,24.85
2018-04-16T02:43:42.906Z,24.67
2018-04-16T02:46:16.255Z,25.88
2018-04-16T02:48:49.435Z,26.07
2018-04-16T02:51:22.606Z,25.75
2018-04-16T02:53:55.665Z,25.55
2018-04-16T02:56:28.831Z,26.65
2018-04-16T02:59:02.054Z,27.20
2018-04-16T03:01:36.164Z,25.77
2018-04-16T03:04:10.139Z,25.67
2018-04-16T03:06:43.245Z,26.40
2018-04-16T03:09:16.477Z,25.58
2018-04-16T03:11:49.714Z,25.88
2018-04-16T03:14:22.856Z,27.17
2018-04-16T03:16:56.004Z,24.60
2018-04-16T03:19:29.152Z,25.07
2018-04-16T03:22:02.413Z,25.17
2018-04-16T03:24:48.541Z,25.73
2018-04-16T03:27:21.780Z,26.25
2018-04-16T03:29:54.942Z,25.40
2018-04-16T03:32:28.229Z,26.55
2018-04-16T03:35:01.452Z,25.80
2018-04-16T03:37:34.615Z,26.02
2018-04-16T03:40:07.797Z,25.05
2018-04-16T03:42:41.124Z,24.33
2018-04-16T03:45:14.344Z,25.52
2018-04-16T03:47:47.506Z,25.88
2018-04-16T03:50:20.770Z,25.40
2018-04-16T03:52:53.933Z,25.15
2018-04-16T03:55:24.266Z,24.50
2018-04-16T03:57:51.787Z,25.35
2018-04-16T04:00:20.070Z,24.98
2018-04-16T04:02:47.601Z,26.75
2018-04-16T04:05:15.128Z,24.50
2018-04-16T04:07:42.651Z,25.80
2018-04-16T04:10:10.171Z,25.60
2018-04-16T04:12:37.717Z,25.00
2018-04-16T04:15:05.302Z,25.53
2018-04-16T04:17:32.885Z,24.08
2018-04-16T04:20:00.435Z,25.17
2018-04-16T04:22:40.050Z,24.50
2018-04-16T04:25:19.447Z,24.77
2018-04-16T04:27:58.770Z,26.77
2018-04-16T04:30:41.168Z,25.98
2018-04-16T04:33:08.698Z,26.20
2018-04-16T04:35:36.222Z,27.50
2018-04-16T04:38:04.533Z,27.00
2018-04-16T04:40:32.057Z,27.40
2018-04-16T04:43:00.334Z,25.40
2018-04-16T04:45:28.626Z,26.73
2018-04-16T04:47:56.192Z,25.10
2018-04-16T04:50:23.761Z,25.45
2018-04-16T04:52:51.286Z,24.85
2018-04-16T04:55:18.817Z,27.02
2018-04-16T04:57:46.358Z,25.98
2018-04-16T05:00:13.903Z,26.73
2018-04-16T05:02:41.425Z,26.30
2018-04-16T05:05:09.728Z,26.05
2018-04-16T05:07:37.265Z,26.37
2018-04-16T05:10:04.777Z,28.10
2018-04-16T05:12:32.313Z,27.67
2018-04-16T05:14:59.844Z,28.60
2018-04-16T05:17:28.143Z,28.25
2018-04-16T05:19:55.658Z,27.00
2018-04-16T05:22:23.176Z,26.65
2018-04-16T05:24:50.682Z,27.17
2018-04-16T05:27:18.323Z,26.75
2018-04-16T05:29:45.882Z,26.85
2018-04-16T05:32:13.405Z,25.55
2018-04-16T05:34:41.014Z,25.75
2018-04-16T05:37:08.564Z,25.52
2018-04-16T05:39:36.076Z,24.90
2018-04-16T05:42:03.783Z,24.45
2018-04-16T05:44:31.351Z,23.73
2018-04-16T05:46:58.900Z,25.67
2018-04-16T05:49:26.489Z,25.77
2018-04-16T05:51:53.996Z,24.15
2018-04-16T05:54:21.544Z,26.05
2018-04-16T05:56:49.066Z,26.05
2018-04-16T05:59:16.786Z,26.90
2018-04-16T06:01:44.301Z,25.62
2018-04-16T06:04:12.634Z,24.52
2018-04-16T06:06:40.246Z,24.70
2018-04-16T06:09:07.710Z,24.48
2018-04-16T06:11:35.270Z,26.65
2018-04-16T06:14:02.865Z,26.52
2018-04-16T06:16:30.393Z,25.90
2018-04-16T06:18:57.917Z,25.02
2018-04-16T06:21:25.440Z,27.52
2018-04-16T06:23:53.004Z,27.73
2018-04-16T06:26:20.541Z,27.02
2018-04-16T06:28:48.073Z,27.92
2018-04-16T06:31:15.639Z,28.17
2018-04-16T06:33:43.200Z,26.97
2018-04-16T06:36:10.743Z,28.15
2018-04-16T06:38:38.251Z,25.88
2018-04-16T06:41:05.811Z,26.12
2018-04-16T06:43:33.437Z,26.37
2018-04-16T06:46:00.969Z,27.80
2018-04-16T06:48:28.571Z,28.08
2018-04-16T06:50:56.262Z,27.17
2018-04-16T06:53:23.790Z,27.45
2018-04-16T06:55:52.101Z,28.42
2018-04-16T06:58:19.633Z,28.42
2018-04-16T07:00:47.213Z,29.20
2018-04-16T07:03:14.742Z,27.48
2018-04-16T07:05:42.287Z,28.67
2018-04-16T07:08:09.864Z,26.40
2018-04-16T07:10:37.572Z,27.85
2018-04-16T07:13:05.135Z,28.83
2018-04-16T07:15:32.679Z,27.42
2018-04-16T07:18:00.227Z,27.45
2018-04-16T07:20:27.816Z,29.45
2018-04-16T07:22:55.325Z,29.07
2018-04-16T07:25:23.617Z,29.70
2018-04-16T07:27:52.019Z,27.77
2018-04-16T07:30:19.532Z,29.17
2018-04-16T07:32:47.060Z,28.70
2018-04-16T07:35:16.016Z,29.70
2018-04-16T07:37:43.527Z,32.35
2018-04-16T07:40:11.050Z,29.80
2018-04-16T07:42:38.580Z,31.05
2018-04-16T07:45:06.102Z,30.42
2018-04-16T07:47:33.728Z,29.75
2018-04-16T07:50:01.287Z,29.10
2018-04-16T07:52:28.853Z,29.85
2018-04-16T07:54:56.433Z,27.75
2018-04-16T07:57:23.966Z,27.00
2018-04-16T07:59:51.505Z,28.20
2018-04-16T08:02:19.910Z,28.45
2018-04-16T08:04:47.469Z,28.00
2018-04-16T08:07:15.018Z,29.65
2018-04-16T08:09:42.585Z,29.33
2018-04-16T08:12:10.190Z,29.10
2018-04-16T08:14:37.764Z,31.00
2018-04-16T08:17:05.382Z,31.05
2018-04-16T08:19:33.037Z,28.92
2018-04-16T08:22:00.581Z,33.58
2018-04-16T08:24:28.114Z,34.85
2018-04-16T08:26:55.657Z,33.33
2018-04-16T08:29:23.179Z,33.77
2018-04-16T08:31:50.714Z,35.83
2018-04-16T08:34:19.007Z,35.53
2018-04-16T08:36:46.517Z,34.73
2018-04-16T08:39:14.033Z,35.05
2018-04-16T08:41:41.637Z,32.95
2018-04-16T08:44:09.169Z,34.30
2018-04-16T08:46:36.757Z,35.03
2018-04-16T08:49:04.273Z,32.95
2018-04-16T08:51:31.806Z,32.25
2018-04-16T08:54:00.086Z,31.50
2018-04-16T08:56:28.385Z,30.35
2018-04-16T08:58:55.914Z,31.75
2018-04-16T09:01:23.470Z,30.83
2018-04-16T09:03:51.097Z,28.77
2018-04-16T09:06:18.610Z,30.23
2018-04-16T09:08:46.914Z,29.65
2018-04-16T09:11:14.504Z,31.45
2018-04-16T09:13:42.043Z,29.80
2018-04-16T09:16:09.618Z,28.75
2018-04-16T09:18:37.166Z,29.75
2018-04-16T09:21:04.711Z,29.80
2018-04-16T09:23:32.226Z,30.70
2018-04-16T09:26:00.643Z,32.13
2018-04-16T09:28:28.226Z,30.90
2018-04-16T09:30:55.733Z,30.75
2018-04-16T09:33:23.254Z,26.92
2018-04-16T09:35:50.785Z,27.23
2018-04-16T09:38:18.334Z,25.00
2018-04-16T09:40:45.837Z,24.98
2018-04-16T09:43:13.385Z,24.05
2018-04-16T09:45:40.930Z,27.77
2018-04-16T09:48:08.467Z,26.95
2018-04-16T09:50:36.061Z,25.25
2018-04-16T09:53:03.612Z,28.45
2018-04-16T09:55:31.185Z,26.83
2018-04-16T09:57:58.848Z,29.40
2018-04-16T10:00:27.889Z,27.08
2018-04-16T10:03:06.213Z,27.92
2018-04-16T10:05:33.737Z,27.52
2018-04-16T10:08:01.273Z,28.05
2018-04-16T10:10:28.810Z,27.27
2018-04-16T10:12:56.344Z,27.85
2018-04-16T10:15:24.717Z,28.67
2018-04-16T10:17:52.393Z,26.58
2018-04-16T10:20:20.663Z,25.00
2018-04-16T10:22:48.197Z,27.08
2018-04-16T10:25:16.532Z,26.25
2018-04-16T10:27:44.099Z,24.92
2018-04-16T10:30:11.696Z,25.62
2018-04-16T10:32:39.309Z,26.90
2018-04-16T10:35:06.841Z,27.27
2018-04-16T10:37:34.384Z,27.55
2018-04-16T10:40:01.898Z,24.63
2018-04-16T10:42:29.434Z,27.15
2018-04-16T10:44:57.002Z,24.87
2018-04-16T10:47:24.526Z,24.30
2018-04-16T10:49:52.074Z,26.15
2018-04-16T10:52:19.586Z,26.75
2018-04-16T10:54:47.137Z,23.92
2018-04-16T10:57:14.651Z,22.33
2018-04-16T10:59:42.174Z,23.45
2018-04-16T11:02:09.690Z,22.83
2018-04-16T11:04:37.213Z,23.38
2018-04-16T11:07:04.759Z,24.30
2018-04-16T11:09:32.283Z,23.23
2018-04-16T11:11:59.858Z,22.87
2018-04-16T11:14:27.364Z,21.23
2018-04-16T11:16:54.908Z,21.27
2018-04-16T11:19:22.419Z,20.00
2018-04-16T11:21:50.706Z,19.35
2018-04-16T11:24:18.235Z,21.62
2018-04-16T11:26:45.758Z,21.23
2018-04-16T11:29:13.270Z,23.10
2018-04-16T11:31:41.544Z,23.25
2018-04-16T11:34:09.871Z,23.08
2018-04-16T11:36:37.665Z,18.40
2018-04-16T11:39:05.201Z,20.42
2018-04-16T11:41:32.740Z,21.12
2018-04-16T11:44:03.835Z,20.52
2018-04-16T11:46:31.490Z,21.65
2018-04-16T11:48:59.013Z,23.42
2018-04-16T11:51:26.535Z,20.55
2018-04-16T11:53:54.821Z,20.55
2018-04-16T11:56:22.369Z,20.30
2018-04-16T11:58:49.989Z,20.23
2018-04-16T12:01:17.529Z,19.58
2018-04-16T12:03:45.193Z,19.05
2018-04-16T12:06:12.764Z,18.80
2018-04-16T12:08:40.308Z,17.25
2018-04-16T12:11:07.826Z,19.40
2018-04-16T12:13:36.106Z,18.73
2018-04-16T12:16:03.680Z,19.50
2018-04-16T12:18:31.970Z,21.05
2018-04-16T12:20:59.655Z,20.15
2018-04-16T12:23:27.179Z,21.05
2018-04-16T12:25:55.509Z,17.92
2018-04-16T12:28:23.855Z,20.67
2018-04-16T12:30:51.394Z,17.77
2018-04-16T12:33:19.746Z,20.50
2018-04-16T12:35:47.278Z,19.50
2018-04-16T12:38:14.786Z,17.87
2018-04-16T12:40:43.059Z,21.83
2018-04-16T12:43:11.421Z,19.50
2018-04-16T12:45:38.960Z,20.77
2018-04-16T12:48:06.611Z,22.60
2018-04-16T12:50:34.092Z,22.87
2018-04-16T12:53:01.637Z,22.00
2018-04-16T12:55:29.151Z,20.70
2018-04-16T12:57:56.671Z,22.48
2018-04-16T13:00:24.190Z,20.77
2018-04-16T13:02:51.765Z,19.55
2018-04-16T13:05:19.288Z,20.12
2018-04-16T13:07:47.575Z,21.87
2018-04-16T13:10:15.114Z,24.50
2018-04-16T13:12:42.660Z,21.62
2018-04-16T13:15:10.310Z,23.87
2018-04-16T13:17:37.841Z,20.73
2018-04-16T13:20:05.429Z,20.58
2018-04-16T13:22:32.961Z,21.70
2018-04-16T13:25:00.521Z,20.92
2018-04-16T13:27:28.067Z,23.95
2018-04-16T13:29:55.625Z,22.37
2018-04-16T13:32:23.132Z,21.08
2018-04-16T13:34:50.700Z,21.10
2018-04-16T13:37:18.242Z,20.40
2018-04-16T13:39:45.771Z,20.85
2018-04-16T13:42:13.296Z,23.27
2018-04-16T13:44:40.984Z,25.05
2018-04-16T13:47:08.555Z,24.58
2018-04-16T13:49:36.126Z,24.25
2018-04-16T13:52:03.633Z,26.08
2018-04-16T13:54:32.131Z,24.55
2018-04-16T13:56:59.666Z,25.30
2018-04-16T13:59:27.191Z,27.65
2018-04-16T14:01:54.753Z,27.90
2018-04-16T14:04:22.281Z,25.70
2018-04-16T14:06:49.927Z,26.33
2018-04-16T14:09:17.703Z,25.88
2018-04-16T14:11:45.509Z,24.00
2018-04-16T14:14:13.096Z,24.08
2018-04-16T14:16:40.656Z,24.33
2018-04-16T14:19:08.197Z,23.52
2018-04-16T14:21:35.754Z,22.73
2018-04-16T14:24:03.614Z,21.50
2018-04-16T14:26:31.195Z,21.92
2018-04-16T14:28:58.741Z,24.98
2018-04-16T14:31:26.306Z,23.27
2018-04-16T14:33:53.873Z,24.35
2018-04-16T14:36:21.424Z,21.62
2018-04-16T14:38:48.958Z,24.05
2018-04-16T14:41:16.484Z,24.40
2018-04-16T14:43:45.228Z,24.25
2018-04-16T14:46:12.773Z,27.67
2018-04-16T14:48:40.309Z,26.42
2018-04-16T14:51:07.922Z,28.35
2018-04-16T14:53:35.565Z,26.48
2018-04-16T14:56:03.156Z,27.15
2018-04-16T14:58:30.672Z,27.90
2018-04-16T15:00:58.242Z,27.35
2018-04-16T15:03:25.750Z,29.75
2018-04-16T15:05:53.275Z,29.40
2018-04-16T15:08:20.916Z,29.92
2018-04-16T15:10:48.457Z,30.35
2018-04-16T15:13:15.979Z,28.20
2018-04-16T15:15:43.481Z,31.92
2018-04-16T15:18:11.091Z,33.10
2018-04-16T15:20:38.747Z,32.92
2018-04-16T15:23:07.104Z,33.35
2018-04-16T15:25:34.641Z,34.78
2018-04-16T15:28:03.384Z,30.05
2018-04-16T15:30:30.950Z,32.35
2018-04-16T15:32:58.581Z,32.85
2018-04-16T15:35:26.173Z,32.22
2018-04-16T15:37:53.729Z,34.40
2018-04-16T15:40:21.276Z,33.15
2018-04-16T15:42:48.870Z,33.13
2018-04-16T15:45:17.751Z,33.88
2018-04-16T15:47:45.276Z,32.90
2018-04-16T15:50:12.800Z,33.50
2018-04-16T15:52:40.616Z,33.60
2018-04-16T15:55:09.026Z,35.38
2018-04-16T15:57:36.573Z,34.88
2018-04-16T16:00:04.112Z,36.22
2018-04-16T16:02:31.755Z,36.92
2018-04-16T16:05:00.073Z,37.08
2018-04-16T16:07:28.393Z,38.22
2018-04-16T16:09:56.176Z,38.22
2018-04-16T16:12:23.787Z,39.03
2018-04-16T16:14:51.350Z,38.60
2018-04-16T16:17:19.717Z,40.38
2018-04-16T16:19:47.268Z,40.10
2018-04-16T16:22:14.829Z,35.20
2018-04-16T16:24:42.362Z,40.08
2018-04-16T16:27:09.882Z,39.00
2018-04-16T16:29:38.447Z,39.60
2018-04-16T16:32:06.046Z,36.33
2018-04-16T16:34:33.609Z,39.38
2018-04-16T16:37:01.106Z,41.20
2018-04-16T16:39:28.628Z,39.58
2018-04-16T16:41:56.152Z,42.10
2018-04-16T16:44:23.748Z,39.80
2018-04-16T16:46:51.276Z,39.67
2018-04-16T16:49:18.879Z,39.03
2018-04-16T16:51:46.421Z,39.08
2018-04-16T16:54:13.970Z,40.53
2018-04-16T16:56:41.532Z,39.78
2018-04-16T16:59:09.164Z,43.15
2018-04-16T17:01:36.687Z,44.60
2018-04-16T17:04:04.243Z,41.67
2018-04-16T17:06:31.765Z,39.80
2018-04-16T17:09:00.077Z,43.90
2018-04-16T17:11:27.613Z,41.20
2018-04-16T17:13:55.189Z,40.12
2018-04-16T17:16:22.858Z,41.55
2018-04-16T17:18:50.417Z,42.22
2018-04-16T17:21:17.959Z,43.00
2018-04-16T17:23:45.484Z,45.58
2018-04-16T17:26:13.038Z,41.58
2018-04-16T17:28:40.619Z,43.58
2018-04-16T17:31:08.913Z,42.65
2018-04-16T17:33:36.456Z,40.50
2018-04-16T17:36:05.044Z,44.10
2018-04-16T17:38:32.670Z,44.20
2018-04-16T17:41:00.215Z,45.47
2018-04-16T17:43:27.966Z,42.10
2018-04-16T17:45:55.525Z,44.03
2018-04-16T17:48:23.090Z,42.78
2018-04-16T17:50:50.616Z,43.20
2018-04-16T17:53:18.950Z,44.22
2018-04-16T17:55:46.465Z,42.35
2018-04-16T17:58:14.086Z,42.42
2018-04-16T18:00:42.609Z,44.15
2018-04-16T18:03:10.163Z,42.85
2018-04-16T18:05:37.729Z,42.77
2018-04-16T18:08:05.286Z,44.00
2018-04-16T18:10:32.878Z,42.62
2018-04-16T18:13:01.045Z,46.25
2018-04-16T18:15:28.597Z,43.13
2018-04-16T18:17:56.135Z,42.08
2018-04-16T18:20:24.447Z,44.60
2018-04-16T18:22:52.053Z,41.70
2018-04-16T18:25:19.612Z,40.70
2018-04-16T18:27:47.203Z,41.10
2018-04-16T18:30:14.733Z,40.08
2018-04-16T18:32:42.290Z,41.93
2018-04-16T18:35:09.854Z,41.80
2018-04-16T18:37:37.472Z,42.15
2018-04-16T18:40:05.058Z,42.53
2018-04-16T18:42:32.585Z,40.67
2018-04-16T18:45:00.133Z,42.05
2018-04-16T18:47:27.751Z,42.20
2018-04-16T18:49:55.575Z,39.65
2018-04-16T18:52:23.110Z,40.50
2018-04-16T18:54:50.640Z,41.43
2018-04-16T18:57:18.206Z,40.33
2018-04-16T18:59:45.879Z,42.92
2018-04-16T19:02:13.427Z,42.90
2018-04-16T19:04:41.785Z,41.47
2018-04-16T19:07:09.361Z,40.20
2018-04-16T19:09:36.895Z,41.83
2018-04-16T19:12:04.941Z,41.50
2018-04-16T19:14:32.717Z,41.50
2018-04-16T19:17:00.359Z,42.72
2018-04-16T19:19:28.903Z,42.70
2018-04-16T19:21:57.308Z,41.47
2018-04-16T19:24:25.052Z,42.50
2018-04-16T19:26:58.373Z,41.88
2018-04-16T19:29:26.880Z,41.75
2018-04-16T19:31:54.457Z,41.83
2018-04-16T19:34:27.637Z,41.00
2018-04-16T19:36:55.270Z,41.08
2018-04-16T19:39:22.986Z,39.85
2018-04-16T19:41:56.502Z,39.97
2018-04-16T19:44:24.395Z,41.45
2018-04-16T19:46:52.721Z,67.35
2018-04-16T19:49:26.311Z,37.60
2018-04-16T19:51:54.094Z,39.55
2018-04-16T19:54:21.695Z,40.55
2018-04-16T19:56:55.051Z,38.45
2018-04-16T19:59:22.618Z,38.33
2018-04-16T20:01:55.911Z,38.78
2018-04-16T20:04:24.218Z,36.28
2018-04-16T20:06:51.802Z,36.90
2018-04-16T20:09:19.333Z,37.53
2018-04-16T20:11:47.001Z,36.65
2018-04-16T20:14:15.403Z,44.50
2018-04-16T20:16:44.027Z,58.65
2018-04-16T20:19:11.570Z,41.43
2018-04-16T20:21:40.203Z,35.55
2018-04-16T20:24:08.572Z,40.75
2018-04-16T20:26:36.172Z,64.12
2018-04-16T20:29:03.753Z,38.10
2018-04-16T20:31:32.078Z,68.90
2018-04-16T20:33:59.637Z,42.33
2018-04-16T20:36:32.156Z,43.58
2018-04-16T20:38:59.728Z,36.08
2018-04-16T20:41:27.372Z,35.78
2018-04-16T20:43:54.951Z,36.40
2018-04-16T20:46:22.573Z,39.55
2018-04-16T20:48:50.903Z,39.28
2018-04-16T20:51:18.466Z,59.22
2018-04-16T20:53:46.020Z,39.25
2018-04-16T20:56:13.599Z,39.47
2018-04-16T20:58:41.252Z,40.58
2018-04-16T21:01:08.903Z,41.00
2018-04-16T21:03:36.481Z,50.22
2018-04-16T21:06:04.118Z,44.65
2018-04-16T21:08:31.658Z,42.80
2018-04-16T21:10:59.238Z,43.45
2018-04-16T21:13:26.809Z,42.97
2018-04-16T21:15:55.180Z,47.28
2018-04-16T21:18:23.084Z,68.75
2018-04-16T21:20:50.641Z,47.17
2018-04-16T21:23:18.237Z,43.08
2018-04-16T21:25:45.811Z,44.53
2018-04-16T21:28:13.371Z,44.20
2018-04-16T21:30:41.797Z,43.85
2018-04-16T21:33:09.307Z,44.60
2018-04-16T21:35:37.604Z,50.63
2018-04-16T21:38:05.175Z,54.30
2018-04-16T21:40:32.719Z,49.50
2018-04-16T21:43:00.291Z,46.67
2018-04-16T21:45:27.926Z,45.58
2018-04-16T21:47:55.559Z,48.47
2018-04-16T21:50:23.178Z,49.20
2018-04-16T21:52:50.698Z,46.23
2018-04-16T21:55:19.065Z,48.95
2018-04-16T21:57:46.604Z,47.22
2018-04-16T22:00:14.161Z,50.33
2018-04-16T22:02:41.695Z,49.05
2018-04-16T22:05:09.354Z,59.35
2018-04-16T22:07:36.897Z,46.03
2018-04-16T22:10:04.570Z,48.60
2018-04-16T22:12:32.117Z,48.70
2018-04-16T22:15:00.789Z,48.70
2018-04-16T22:17:28.316Z,48.53
2018-04-16T22:19:55.882Z,49.20
2018-04-16T22:22:24.955Z,47.22
2018-04-16T22:24:53.456Z,54.87
2018-04-16T22:27:21.000Z,51.25
2018-04-16T22:29:48.528Z,48.70
2018-04-16T22:32:16.075Z,48.72
2018-04-16T22:34:44.393Z,48.50
2018-04-16T22:37:11.967Z,49.23
2018-04-16T22:39:39.511Z,48.90
2018-04-16T22:42:07.110Z,47.73
2018-04-16T22:44:34.649Z,47.72
2018-04-16T22:47:02.182Z,48.80
2018-04-16T22:49:29.758Z,49.10
2018-04-16T22:51:57.300Z,50.30
2018-04-16T22:54:24.829Z,50.78
2018-04-16T22:56:53.133Z,51.25
2018-04-16T22:59:20.689Z,48.63
2018-04-16T23:01:48.268Z,49.80
2018-04-16T23:04:15.826Z,46.22
2018-04-16T23:06:43.352Z,45.08
2018-04-16T23:09:10.877Z,47.07
2018-04-16T23:11:38.404Z,47.55
2018-04-16T23:14:05.963Z,47.90
2018-04-16T23:16:33.520Z,47.85
2018-04-16T23:19:01.139Z,47.25
2018-04-16T23:21:28.636Z,46.88
2018-04-16T23:23:56.180Z,48.25
2018-04-16T23:26:24.374Z,48.05
2018-04-16T23:28:51.890Z,45.17
2018-04-16T23:31:19.394Z,47.30
2018-04-16T23:33:46.929Z,46.83
2018-04-16T23:36:14.533Z,46.75
2018-04-16T23:38:42.033Z,44.22
2018-04-16T23:41:10.346Z,45.47
2018-04-16T23:43:38.842Z,43.53
2018-04-16T23:46:06.383Z,40.45
2018-04-16T23:48:33.917Z,42.80
2018-04-16T23:51:02.216Z,41.53
2018-04-16T23:53:29.734Z,43.35
2018-04-16T23:55:57.256Z,42.38
2018-04-16T23:58:24.774Z,41.20
